Time;durP1;ratioP1;P1;durP2;ratioP2;P2;SDS_P1;SDS_P2;PMS_P1;PMS_P2;Temp;Humidity;BMP_temperature;BMP_pressure;BME280_temperature;BME280_humidity;BME280_pressure;Samples;Min_cycle;Max_cycle;Signal;HPM_P1;HPM_P2
2023/10/08 00:00:46;;;;;;;23.40;5.57;;;;;;;;;;4983745;28;25092;-74
2023/10/08 00:03:13;;;;;;;25.58;6.53;;;;;;;;;;4981573;28;25077;-74
2023/10/08 00:05:40;;;;;;;25.65;5.80;;;;;;;;;;4985638;28;25085;-74
2023/10/08 00:08:06;;;;;;;22.95;6.00;;;;;;;;;;4990846;28;25148;-74
2023/10/08 00:10:42;;;;;;;22.92;5.72;;;;;;;;;;4988587;28;25074;-72
2023/10/08 00:13:09;;;;;;;31.20;5.75;;;;;;;;;;4988424;28;25160;-71
2023/10/08 00:15:41;;;;;;;28.88;5.68;;;;;;;;;;4991986;28;25081;-73
2023/10/08 00:18:11;;;;;;;26.15;6.35;;;;;;;;;;4998619;28;25174;-74
2023/10/08 00:20:54;;;;;;;24.08;5.10;;;;;;;;;;4984631;28;25117;-73
2023/10/08 00:23:20;;;;;;;23.63;5.78;;;;;;;;;;4994011;28;25045;-74
2023/10/08 00:25:47;;;;;;;25.77;5.85;;;;;;;;;;4994349;28;25156;-74
2023/10/08 00:28:13;;;;;;;23.30;5.93;;;;;;;;;;4987699;28;25115;-73
2023/10/08 00:30:42;;;;;;;25.35;6.10;;;;;;;;;;4988185;28;25076;-73
2023/10/08 00:33:09;;;;;;;23.02;6.40;;;;;;;;;;4984713;28;25074;-73
2023/10/08 00:35:41;;;;;;;28.00;6.22;;;;;;;;;;4993472;28;25133;-72
2023/10/08 00:38:14;;;;;;;;;;;;;;;;;;4992591;28;25134;-72
2023/10/08 00:40:40;;;;;;;26.00;6.30;;;;;;;;;;4987297;28;25056;-75
2023/10/08 00:43:10;;;;;;;23.77;6.75;;;;;;;;;;4982833;28;25076;-71
2023/10/08 00:45:42;;;;;;;22.83;5.82;;;;;;;;;;4985930;28;25092;-72
2023/10/08 00:48:09;;;;;;;21.92;6.25;;;;;;;;;;4989173;28;25077;-73
2023/10/08 00:50:42;;;;;;;27.33;6.43;;;;;;;;;;4981301;28;25083;-72
2023/10/08 00:53:11;;;;;;;23.60;6.40;;;;;;;;;;4978563;28;25060;-72
2023/10/08 00:55:37;;;;;;;28.88;6.60;;;;;;;;;;4986362;28;25072;-73
2023/10/08 00:58:11;;;;;;;27.83;6.10;;;;;;;;;;4981625;28;25082;-74
2023/10/08 01:00:41;;;;;;;23.63;6.93;;;;;;;;;;4984083;28;25070;-72
2023/10/08 01:03:14;;;;;;;28.52;6.25;;;;;;;;;;4990656;28;25078;-70
2023/10/08 01:05:47;;;;;;;23.65;6.57;;;;;;;;;;4984402;28;25323;-74
2023/10/08 01:08:22;;;;;;;20.80;6.45;;;;;;;;;;4985622;28;25111;-71
2023/10/08 01:10:49;;;;;;;19.92;6.95;;;;;;;;;;4991541;28;25064;-71
2023/10/08 01:13:19;;;;;;;29.45;8.05;;;;;;;;;;4991562;28;25080;-72
2023/10/08 01:15:48;;;;;;;25.10;6.63;;;;;;;;;;4998724;28;25045;-72
2023/10/08 01:18:29;;;;;;;21.42;6.57;;;;;;;;;;4997013;28;25087;-72
2023/10/08 01:20:56;;;;;;;20.20;6.50;;;;;;;;;;4983786;28;25118;-73
2023/10/08 01:23:26;;;;;;;30.95;8.20;;;;;;;;;;4989430;28;25089;-71
2023/10/08 01:26:02;;;;;;;29.63;7.00;;;;;;;;;;4991155;28;25068;-72
2023/10/08 01:28:33;;;;;;;24.13;7.82;;;;;;;;;;4984513;28;25139;-71
2023/10/08 01:31:00;;;;;;;26.08;6.97;;;;;;;;;;4996110;28;25055;-71
2023/10/08 01:33:46;;;;;;;24.95;6.88;;;;;;;;;;4990113;28;25085;-73
2023/10/08 01:36:12;;;;;;;25.77;7.55;;;;;;;;;;4989567;28;25130;-74
2023/10/08 01:38:41;;;;;;;23.52;6.05;;;;;;;;;;4991208;28;25100;-71
2023/10/08 01:41:18;;;;;;;24.45;7.80;;;;;;;;;;4987648;28;25100;-71
2023/10/08 01:43:44;;;;;;;25.63;7.55;;;;;;;;;;4987788;28;25184;-74
2023/10/08 01:46:11;;;;;;;31.67;7.53;;;;;;;;;;4991372;28;25098;-73
2023/10/08 01:48:38;;;;;;;19.40;6.45;;;;;;;;;;4988397;28;25081;-73
2023/10/08 01:51:09;;;;;;;25.73;7.28;;;;;;;;;;4982161;28;25049;-72
2023/10/08 01:53:36;;;;;;;21.05;6.70;;;;;;;;;;4980736;28;25094;-74
2023/10/08 01:56:04;;;;;;;18.05;6.75;;;;;;;;;;4982810;28;25120;-74
2023/10/08 01:58:30;;;;;;;28.00;6.88;;;;;;;;;;4987663;28;25481;-72
2023/10/08 02:01:00;;;;;;;18.77;5.63;;;;;;;;;;4991770;28;25085;-73
2023/10/08 02:03:27;;;;;;;22.77;6.82;;;;;;;;;;4991483;28;25075;-73
2023/10/08 02:05:53;;;;;;;22.75;6.03;;;;;;;;;;4988212;28;25171;-74
2023/10/08 02:08:20;;;;;;;23.35;6.78;;;;;;;;;;4983625;28;25053;-75
2023/10/08 02:10:47;;;;;;;25.45;7.72;;;;;;;;;;4989643;28;25054;-73
2023/10/08 02:13:14;;;;;;;36.17;6.72;;;;;;;;;;4989853;28;25125;-73
2023/10/08 02:15:47;;;;;;;29.35;7.57;;;;;;;;;;4993480;28;25074;-73
2023/10/08 02:18:13;;;;;;;23.33;6.68;;;;;;;;;;4985606;28;25094;-73
2023/10/08 02:20:40;;;;;;;19.77;7.00;;;;;;;;;;4996395;28;25056;-75
2023/10/08 02:23:06;;;;;;;21.48;6.22;;;;;;;;;;4982522;28;25150;-72
2023/10/08 02:25:34;;;;;;;25.85;7.03;;;;;;;;;;4985990;28;25065;-73
2023/10/08 02:28:02;;;;;;;23.92;7.10;;;;;;;;;;4993946;28;25148;-73
2023/10/08 02:30:28;;;;;;;18.95;7.45;;;;;;;;;;4991864;28;25173;-73
2023/10/08 02:32:54;;;;;;;23.20;6.38;;;;;;;;;;4998111;28;25084;-74
2023/10/08 02:35:20;;;;;;;21.30;6.78;;;;;;;;;;4978232;28;25130;-74
2023/10/08 02:37:46;;;;;;;22.08;6.82;;;;;;;;;;4987607;28;25151;-74
2023/10/08 02:40:29;;;;;;;21.40;7.05;;;;;;;;;;4986384;28;25074;-74
2023/10/08 02:42:58;;;;;;;24.55;7.10;;;;;;;;;;4989795;28;25090;-73
2023/10/08 02:45:25;;;;;;;24.40;6.63;;;;;;;;;;4991828;28;25081;-73
2023/10/08 02:47:52;;;;;;;22.05;6.93;;;;;;;;;;4992540;28;25042;-74
2023/10/08 02:50:18;;;;;;;25.00;7.30;;;;;;;;;;4988830;28;25066;-74
2023/10/08 02:52:44;;;;;;;20.63;6.57;;;;;;;;;;4986910;28;25058;-73
2023/10/08 02:55:34;;;;;;;25.08;7.93;;;;;;;;;;4990461;28;25052;-71
2023/10/08 02:58:02;;;;;;;26.55;7.38;;;;;;;;;;4973605;28;25082;-74
2023/10/08 03:00:34;;;;;;;21.23;8.02;;;;;;;;;;4982573;28;25064;-73
2023/10/08 03:03:09;;;;;;;22.15;7.57;;;;;;;;;;4985089;28;25069;-74
2023/10/08 03:05:35;;;;;;;22.40;7.35;;;;;;;;;;4994698;28;25077;-71
2023/10/08 03:08:02;;;;;;;23.63;7.18;;;;;;;;;;4985363;28;25141;-74
2023/10/08 03:10:33;;;;;;;27.63;8.25;;;;;;;;;;4992516;28;25082;-73
2023/10/08 03:13:04;;;;;;;21.10;7.55;;;;;;;;;;4974430;28;25103;-71
2023/10/08 03:15:38;;;;;;;25.90;7.80;;;;;;;;;;4983886;28;25121;-74
2023/10/08 03:18:14;;;;;;;28.77;8.30;;;;;;;;;;4964173;28;25098;-71
2023/10/08 03:20:45;;;;;;;30.85;7.90;;;;;;;;;;4994871;28;25074;-74
2023/10/08 03:23:13;;;;;;;27.45;8.43;;;;;;;;;;4969558;28;25055;-74
2023/10/08 03:25:42;;;;;;;27.58;8.43;;;;;;;;;;4991450;28;25080;-75
2023/10/08 03:28:09;;;;;;;22.80;6.75;;;;;;;;;;4998219;28;25069;-73
2023/10/08 03:30:50;;;;;;;21.27;7.18;;;;;;;;;;4985084;28;24986;-73
2023/10/08 03:33:26;;;;;;;23.27;8.40;;;;;;;;;;4990816;28;25048;-72
2023/10/08 03:35:54;;;;;;;19.45;8.70;;;;;;;;;;4989463;28;25062;-74
2023/10/08 03:38:44;;;;;;;27.23;8.00;;;;;;;;;;4990382;28;25078;-74
2023/10/08 03:41:15;;;;;;;23.08;8.48;;;;;;;;;;4991895;28;25059;-72
2023/10/08 03:46:26;;;;;;;23.00;7.80;;;;;;;;;;4990823;28;25076;-74
2023/10/08 03:48:52;;;;;;;20.88;8.25;;;;;;;;;;4988094;28;25135;-73
2023/10/08 03:51:22;;;;;;;19.42;7.07;;;;;;;;;;4988011;28;25060;-73
2023/10/08 03:56:36;;;;;;;22.70;8.18;;;;;;;;;;4984990;28;25180;-74
2023/10/08 03:59:40;;;;;;;20.92;8.32;;;;;;;;;;4960844;28;25159;-74
2023/10/08 04:01:54;;;;;;;20.52;7.85;;;;;;;;;;4983903;28;25055;-73
2023/10/08 04:04:48;;;;;;;22.98;8.18;;;;;;;;;;4993276;28;25141;-73
2023/10/08 04:07:28;;;;;;;27.95;8.27;;;;;;;;;;4983412;28;25077;-74
2023/10/08 04:12:50;;;;;;;22.42;7.30;;;;;;;;;;4983938;28;25047;-73
2023/10/08 04:15:16;;;;;;;25.23;8.00;;;;;;;;;;4985651;28;25074;-74
2023/10/08 04:17:45;;;;;;;22.35;8.07;;;;;;;;;;4987391;28;25061;-74
2023/10/08 04:23:20;;;;;;;25.45;7.18;;;;;;;;;;4956204;28;25064;-72
2023/10/08 04:25:53;;;;;;;31.35;8.73;;;;;;;;;;4984071;28;25105;-72
2023/10/08 04:28:20;;;;;;;28.17;7.50;;;;;;;;;;4987832;28;25054;-71
2023/10/08 04:30:48;;;;;;;26.05;8.88;;;;;;;;;;4988497;28;25145;-74
2023/10/08 04:33:14;;;;;;;25.45;8.25;;;;;;;;;;4970422;28;25087;-74
2023/10/08 04:35:51;;;;;;;17.10;7.97;;;;;;;;;;4981424;28;25165;-73
2023/10/08 04:38:21;;;;;;;21.77;8.27;;;;;;;;;;4990070;28;25083;-75
2023/10/08 04:40:53;;;;;;;21.20;7.88;;;;;;;;;;4988633;28;25143;-73
2023/10/08 04:43:24;;;;;;;24.08;8.38;;;;;;;;;;4986286;28;25054;-75
2023/10/08 04:45:51;;;;;;;29.50;9.52;;;;;;;;;;4984075;28;25101;-74
2023/10/08 04:48:20;;;;;;;24.73;8.98;;;;;;;;;;4993833;28;25141;-73
2023/10/08 04:50:58;;;;;;;22.85;9.55;;;;;;;;;;4995392;28;25073;-73
2023/10/08 04:53:31;;;;;;;28.02;9.13;;;;;;;;;;4990521;28;25098;-73
2023/10/08 04:55:57;;;;;;;24.00;8.52;;;;;;;;;;4988892;28;25158;-71
2023/10/08 04:58:33;;;;;;;22.05;8.60;;;;;;;;;;4990073;28;25184;-73
2023/10/08 05:01:16;;;;;;;19.92;8.18;;;;;;;;;;4989139;28;25064;-74
2023/10/08 05:03:54;;;;;;;21.50;7.90;;;;;;;;;;4983237;28;25062;-74
2023/10/08 05:06:39;;;;;;;23.75;8.10;;;;;;;;;;4995554;28;25128;-75
2023/10/08 05:30:16;;;;;;;;;;;;;;;;;;4996242;28;25067;-74
2023/10/08 05:36:10;;;;;;;18.42;9.00;;;;;;;;;;4990326;28;25150;-74
2023/10/08 05:38:23;;;;;;;22.73;8.25;;;;;;;;;;4980725;28;25057;-73
2023/10/08 05:41:04;;;;;;;28.38;9.88;;;;;;;;;;4986637;28;25064;-75
2023/10/08 05:59:53;;;;;;;28.00;9.65;;;;;;;;;;4983585;28;25063;-72
2023/10/08 06:13:09;;;;;;;21.33;8.45;;;;;;;;;;4989239;28;25068;-74
2023/10/08 06:15:49;;;;;;;22.23;9.48;;;;;;;;;;4990060;28;25073;-74
2023/10/08 06:18:19;;;;;;;25.00;9.68;;;;;;;;;;4988479;28;25142;-73
2023/10/08 06:20:45;;;;;;;25.77;9.60;;;;;;;;;;4993946;28;25063;-73
2023/10/08 06:23:13;;;;;;;23.25;9.95;;;;;;;;;;4985811;28;25123;-74
2023/10/08 06:25:46;;;;;;;25.80;9.27;;;;;;;;;;4994827;28;25068;-72
2023/10/08 06:28:25;;;;;;;21.55;8.50;;;;;;;;;;4990519;28;25076;-74
2023/10/08 06:30:55;;;;;;;21.35;9.52;;;;;;;;;;4989225;28;25066;-75
2023/10/08 06:33:22;;;;;;;18.73;8.48;;;;;;;;;;4990251;28;25066;-71
2023/10/08 06:36:02;;;;;;;27.20;8.88;;;;;;;;;;4987383;28;25063;-75
2023/10/08 06:38:30;;;;;;;23.60;8.68;;;;;;;;;;4988406;28;25066;-73
2023/10/08 06:41:00;;;;;;;18.52;7.57;;;;;;;;;;4994603;28;25112;-73
2023/10/08 06:43:26;;;;;;;20.77;8.52;;;;;;;;;;4970978;28;25075;-74
2023/10/08 06:45:52;;;;;;;33.22;10.55;;;;;;;;;;4991009;28;25157;-74
2023/10/08 06:48:29;;;;;;;28.90;11.27;;;;;;;;;;4984808;28;25173;-77
2023/10/08 06:50:56;;;;;;;22.55;9.40;;;;;;;;;;4969480;28;25054;-72
2023/10/08 06:53:23;;;;;;;31.42;12.77;;;;;;;;;;4992117;28;25106;-75
2023/10/08 06:55:56;;;;;;;23.85;12.07;;;;;;;;;;4987457;28;25067;-74
2023/10/08 06:58:23;;;;;;;35.28;12.43;;;;;;;;;;4973880;28;25088;-75
2023/10/08 07:00:49;;;;;;;41.95;14.77;;;;;;;;;;4989192;28;25061;-76
2023/10/08 07:03:18;;;;;;;41.28;14.93;;;;;;;;;;4990483;28;25057;-73
2023/10/08 07:05:54;;;;;;;41.83;16.00;;;;;;;;;;4975402;28;25076;-74
2023/10/08 07:08:23;;;;;;;36.33;16.40;;;;;;;;;;4987064;28;25062;-73
2023/10/08 07:10:49;;;;;;;30.60;14.68;;;;;;;;;;4989134;28;25069;-75
2023/10/08 07:13:17;;;;;;;39.10;15.77;;;;;;;;;;4973430;28;25136;-73
2023/10/08 07:15:44;;;;;;;24.90;14.55;;;;;;;;;;4986366;28;25448;-74
2023/10/08 07:18:12;;;;;;;27.40;13.63;;;;;;;;;;4987382;28;25070;-72
2023/10/08 07:20:39;;;;;;;33.75;13.52;;;;;;;;;;4990751;28;25090;-73
2023/10/08 07:23:18;;;;;;;37.92;14.20;;;;;;;;;;4991393;28;25102;-72
2023/10/08 07:25:48;;;;;;;42.95;14.05;;;;;;;;;;4974688;28;25159;-74
2023/10/08 07:28:14;;;;;;;36.53;13.25;;;;;;;;;;4967391;28;25073;-74
2023/10/08 07:30:43;;;;;;;40.13;14.05;;;;;;;;;;4992185;28;25057;-75
2023/10/08 07:33:17;;;;;;;43.90;12.95;;;;;;;;;;4984372;28;25107;-72
2023/10/08 07:35:51;;;;;;;43.20;12.07;;;;;;;;;;4987780;28;25098;-75
2023/10/08 07:38:17;;;;;;;44.63;13.35;;;;;;;;;;4985361;28;25076;-73
2023/10/08 07:40:44;;;;;;;55.03;14.65;;;;;;;;;;4985365;28;25054;-73
2023/10/08 07:43:10;;;;;;;50.13;15.70;;;;;;;;;;4985734;28;25059;-74
2023/10/08 07:45:37;;;;;;;54.55;16.08;;;;;;;;;;4982375;28;25160;-75
2023/10/08 07:48:09;;;;;;;50.03;15.35;;;;;;;;;;4985364;28;25057;-73
2023/10/08 07:50:37;;;;;;;44.80;14.07;;;;;;;;;;4992394;28;25054;-73
2023/10/08 07:53:04;;;;;;;62.72;16.65;;;;;;;;;;4988146;28;25138;-74
2023/10/08 07:55:32;;;;;;;56.08;17.30;;;;;;;;;;4989119;28;25071;-73
2023/10/08 07:57:58;;;;;;;67.45;17.60;;;;;;;;;;4988758;28;25049;-74
2023/10/08 08:00:26;;;;;;;58.88;15.40;;;;;;;;;;4989329;28;25104;-74
2023/10/08 08:02:54;;;;;;;82.93;18.52;;;;;;;;;;4986019;28;25071;-74
2023/10/08 08:05:23;;;;;;;56.97;14.18;;;;;;;;;;4988570;28;25065;-72
2023/10/08 08:07:53;;;;;;;45.97;12.85;;;;;;;;;;4970981;28;25094;-76
2023/10/08 08:10:19;;;;;;;43.28;10.90;;;;;;;;;;4990655;28;25095;-75
2023/10/08 08:12:45;;;;;;;53.45;11.23;;;;;;;;;;4997376;28;25080;-73
2023/10/08 08:15:15;;;;;;;40.15;10.23;;;;;;;;;;4985685;28;25056;-75
2023/10/08 08:17:47;;;;;;;49.42;9.68;;;;;;;;;;4982405;28;25157;-74
2023/10/08 08:20:21;;;;;;;34.25;9.88;;;;;;;;;;4983493;28;25142;-75
2023/10/08 08:22:54;;;;;;;38.15;12.57;;;;;;;;;;4970902;28;25042;-74
2023/10/08 08:25:33;;;;;;;55.53;14.45;;;;;;;;;;4987539;28;25065;-74
2023/10/08 08:27:59;;;;;;;33.55;12.27;;;;;;;;;;4987275;28;25150;-74
2023/10/08 08:30:26;;;;;;;31.15;12.40;;;;;;;;;;4985969;28;25192;-74
2023/10/08 08:32:54;;;;;;;41.75;12.23;;;;;;;;;;4984287;28;25052;-75
2023/10/08 08:35:20;;;;;;;33.50;13.70;;;;;;;;;;4985816;28;25062;-75
2023/10/08 08:37:52;;;;;;;42.78;13.43;;;;;;;;;;4987762;28;25137;-75
2023/10/08 08:40:18;;;;;;;;;;;;;;;;;;4984120;28;25073;-72
2023/10/08 08:42:50;;;;;;;35.40;13.32;;;;;;;;;;4969769;28;25063;-71
2023/10/08 08:45:24;;;;;;;40.43;14.67;;;;;;;;;;4990266;28;25077;-73
2023/10/08 08:47:51;;;;;;;41.33;15.23;;;;;;;;;;4987808;28;25102;-74
2023/10/08 08:50:17;;;;;;;43.20;16.13;;;;;;;;;;4990285;28;25068;-74
2023/10/08 08:52:45;;;;;;;41.13;14.68;;;;;;;;;;4993903;28;25065;-74
2023/10/08 08:55:14;;;;;;;48.47;14.60;;;;;;;;;;4986640;28;25111;-73
2023/10/08 08:57:44;;;;;;;43.05;14.77;;;;;;;;;;4990026;28;25117;-73
2023/10/08 09:00:14;;;;;;;39.35;14.05;;;;;;;;;;4967613;28;25132;-74
2023/10/08 09:02:40;;;;;;;44.42;15.95;;;;;;;;;;4986449;28;25107;-74
2023/10/08 09:05:13;;;;;;;45.08;13.85;;;;;;;;;;4989011;28;25060;-72
2023/10/08 09:08:12;;;;;;;39.33;14.00;;;;;;;;;;4984227;28;25068;-74
2023/10/08 09:10:50;;;;;;;36.17;14.15;;;;;;;;;;4944054;28;25089;-72
2023/10/08 09:13:20;;;;;;;38.65;12.13;;;;;;;;;;4984675;28;25084;-74
2023/10/08 09:15:47;;;;;;;36.08;13.68;;;;;;;;;;4981908;28;25089;-75
2023/10/08 09:18:14;;;;;;;42.55;13.27;;;;;;;;;;4985308;28;25043;-71
2023/10/08 09:20:43;;;;;;;32.75;13.57;;;;;;;;;;4992468;28;25080;-73
2023/10/08 09:23:13;;;;;;;30.08;13.13;;;;;;;;;;4989553;28;25050;-73
2023/10/08 09:25:44;;;;;;;35.35;14.98;;;;;;;;;;4988419;28;25075;-75
2023/10/08 09:28:14;;;;;;;42.00;15.43;;;;;;;;;;4986794;28;25080;-73
2023/10/08 09:30:41;;;;;;;36.13;14.23;;;;;;;;;;4975748;28;25069;-73
2023/10/08 09:33:08;;;;;;;31.00;14.10;;;;;;;;;;4989391;28;25079;-70
2023/10/08 09:35:34;;;;;;;36.90;12.88;;;;;;;;;;4992020;28;25064;-73
2023/10/08 09:38:03;;;;;;;35.13;11.30;;;;;;;;;;4979786;28;25059;-73
2023/10/08 09:40:29;;;;;;;40.47;13.57;;;;;;;;;;5005156;28;25073;-73
2023/10/08 09:42:55;;;;;;;39.58;13.90;;;;;;;;;;4999418;28;25055;-74
2023/10/08 09:45:22;;;;;;;25.90;12.65;;;;;;;;;;4999820;28;25135;-73
2023/10/08 09:47:55;;;;;;;28.92;13.48;;;;;;;;;;4997582;28;25069;-74
2023/10/08 09:50:32;;;;;;;35.83;11.65;;;;;;;;;;4996426;28;25142;-74
2023/10/08 09:53:04;;;;;;;29.73;10.80;;;;;;;;;;4999154;28;25047;-73
2023/10/08 09:55:30;;;;;;;36.15;12.18;;;;;;;;;;4995199;28;25096;-72
2023/10/08 09:57:56;;;;;;;31.52;11.18;;;;;;;;;;4981066;28;25128;-72
2023/10/08 10:00:30;;;;;;;41.67;12.07;;;;;;;;;;5001399;28;25056;-72
2023/10/08 10:02:57;;;;;;;27.20;10.70;;;;;;;;;;4996930;28;25130;-73
2023/10/08 10:05:24;;;;;;;29.40;11.57;;;;;;;;;;4981226;28;25058;-73
2023/10/08 10:07:50;;;;;;;35.63;12.13;;;;;;;;;;4996393;28;25111;-74
2023/10/08 10:10:34;;;;;;;33.83;12.07;;;;;;;;;;4978467;28;25063;-73
2023/10/08 10:13:03;;;;;;;36.72;14.10;;;;;;;;;;4996848;28;25065;-75
2023/10/08 10:15:30;;;;;;;37.97;12.02;;;;;;;;;;4998027;28;25057;-74
2023/10/08 10:17:59;;;;;;;37.33;12.90;;;;;;;;;;5000612;28;25049;-72
2023/10/08 10:20:25;;;;;;;36.83;12.43;;;;;;;;;;4999473;28;25072;-74
2023/10/08 10:22:51;;;;;;;30.23;13.32;;;;;;;;;;4979994;28;25120;-74
2023/10/08 10:25:18;;;;;;;29.42;13.57;;;;;;;;;;4998862;28;25148;-74
2023/10/08 10:27:56;;;;;;;29.48;12.88;;;;;;;;;;4998295;28;25079;-73
2023/10/08 10:30:23;;;;;;;33.22;13.55;;;;;;;;;;4998013;28;25068;-73
2023/10/08 10:32:52;;;;;;;30.52;13.05;;;;;;;;;;4977422;28;25097;-78
2023/10/08 10:35:19;;;;;;;35.55;13.77;;;;;;;;;;4995448;28;25067;-75
2023/10/08 10:37:51;;;;;;;35.67;13.90;;;;;;;;;;4996607;28;25059;-73
2023/10/08 10:40:29;;;;;;;40.53;14.10;;;;;;;;;;4993667;28;25069;-70
2023/10/08 10:43:00;;;;;;;41.22;15.05;;;;;;;;;;4974305;28;25061;-72
2023/10/08 10:45:43;;;;;;;32.92;14.95;;;;;;;;;;4994237;28;25073;-73
2023/10/08 10:53:32;;;;;;;44.58;15.90;;;;;;;;;;4990634;28;25088;-74
2023/10/08 10:56:09;;;;;;;38.30;15.20;;;;;;;;;;4997516;28;25063;-75
2023/10/08 10:58:40;;;;;;;36.75;14.90;;;;;;;;;;4997258;28;25058;-74
2023/10/08 11:01:24;;;;;;;35.28;13.88;;;;;;;;;;4983889;28;25082;-74
2023/10/08 11:03:57;;;;;;;36.17;14.45;;;;;;;;;;4978285;28;25067;-77
2023/10/08 11:06:23;;;;;;;25.30;11.55;;;;;;;;;;4998558;28;25076;-73
2023/10/08 11:08:52;;;;;;;37.03;13.20;;;;;;;;;;4996083;28;25077;-73
2023/10/08 11:11:19;;;;;;;30.67;13.05;;;;;;;;;;5005007;28;25056;-75
2023/10/08 11:13:54;;;;;;;25.95;12.85;;;;;;;;;;5005711;28;25061;-73
2023/10/08 11:16:23;;;;;;;33.60;12.18;;;;;;;;;;5011202;28;25093;-76
2023/10/08 11:18:51;;;;;;;30.42;12.93;;;;;;;;;;5004335;28;25098;-77
2023/10/08 11:21:22;;;;;;;30.25;12.18;;;;;;;;;;4979404;28;25051;-74
2023/10/08 11:23:55;;;;;;;28.83;12.85;;;;;;;;;;4990735;28;25054;-75
2023/10/08 11:26:31;;;;;;;32.15;12.32;;;;;;;;;;4994053;28;25085;-75
2023/10/08 11:29:00;;;;;;;25.15;10.50;;;;;;;;;;4998247;28;25072;-74
2023/10/08 11:31:28;;;;;;;32.88;11.45;;;;;;;;;;4993999;28;25120;-74
2023/10/08 11:33:59;;;;;;;25.73;11.25;;;;;;;;;;4994403;28;25075;-74
2023/10/08 11:36:27;;;;;;;33.08;12.07;;;;;;;;;;4994299;28;25115;-73
2023/10/08 11:38:56;;;;;;;33.40;10.77;;;;;;;;;;4987289;28;25071;-74
2023/10/08 11:41:22;;;;;;;22.05;10.55;;;;;;;;;;4995328;28;25058;-75
2023/10/08 11:43:56;;;;;;;20.98;10.15;;;;;;;;;;4997469;28;25270;-72
2023/10/08 11:46:25;;;;;;;24.42;10.95;;;;;;;;;;5001992;28;25066;-74
2023/10/08 11:48:51;;;;;;;28.85;11.52;;;;;;;;;;4993270;28;25065;-73
2023/10/08 11:51:17;;;;;;;21.25;9.82;;;;;;;;;;5004848;28;25123;-75
2023/10/08 11:53:44;;;;;;;20.38;10.63;;;;;;;;;;5002948;28;25063;-76
2023/10/08 11:56:13;;;;;;;20.55;9.25;;;;;;;;;;4989743;28;25079;-73
2023/10/08 11:58:44;;;;;;;21.38;9.90;;;;;;;;;;4995534;28;25104;-75
2023/10/08 12:01:15;;;;;;;20.58;9.55;;;;;;;;;;5005817;28;25070;-72
2023/10/08 12:03:41;;;;;;;17.80;8.50;;;;;;;;;;4989617;28;25074;-73
2023/10/08 12:06:07;;;;;;;24.75;9.77;;;;;;;;;;4982743;28;25096;-73
2023/10/08 12:08:39;;;;;;;20.80;9.75;;;;;;;;;;4990177;28;25102;-75
2023/10/08 12:11:11;;;;;;;23.05;9.68;;;;;;;;;;4987762;28;25065;-72
2023/10/08 12:13:37;;;;;;;19.75;10.35;;;;;;;;;;4995207;28;25058;-72
2023/10/08 12:16:06;;;;;;;18.23;9.93;;;;;;;;;;4974681;28;25155;-74
2023/10/08 12:18:39;;;;;;;19.92;9.95;;;;;;;;;;4993860;28;25076;-75
2023/10/08 12:21:10;;;;;;;21.33;10.93;;;;;;;;;;4991122;28;25066;-73
2023/10/08 12:23:37;;;;;;;19.75;10.45;;;;;;;;;;4993361;28;25103;-75
2023/10/08 12:26:07;;;;;;;20.02;9.48;;;;;;;;;;4979351;28;25060;-73
2023/10/08 12:28:34;;;;;;;20.23;9.70;;;;;;;;;;4986664;28;25090;-76
2023/10/08 12:31:00;;;;;;;29.95;10.60;;;;;;;;;;5003836;28;25075;-73
2023/10/08 12:33:29;;;;;;;22.25;10.02;;;;;;;;;;4997206;28;25152;-74
2023/10/08 12:35:56;;;;;;;21.25;10.23;;;;;;;;;;4989405;28;25166;-74
2023/10/08 12:38:23;;;;;;;23.67;10.63;;;;;;;;;;4989052;28;25104;-72
2023/10/08 12:40:55;;;;;;;23.60;9.80;;;;;;;;;;4987997;28;25080;-74
2023/10/08 12:43:28;;;;;;;25.17;10.52;;;;;;;;;;4994040;28;25108;-75
2023/10/08 12:45:56;;;;;;;22.23;9.43;;;;;;;;;;5000053;28;25052;-74
2023/10/08 12:48:24;;;;;;;20.67;9.82;;;;;;;;;;5001826;28;25077;-73
2023/10/08 12:50:53;;;;;;;20.80;9.52;;;;;;;;;;4973095;28;25098;-74
2023/10/08 12:53:23;;;;;;;19.40;9.32;;;;;;;;;;4996663;28;25094;-74
2023/10/08 12:55:53;;;;;;;17.60;8.45;;;;;;;;;;4993765;28;25082;-76
2023/10/08 12:58:19;;;;;;;18.50;9.95;;;;;;;;;;5000286;28;25057;-76
2023/10/08 13:00:49;;;;;;;21.92;10.32;;;;;;;;;;4992016;28;25068;-73
2023/10/08 13:03:22;;;;;;;18.75;9.13;;;;;;;;;;4967092;28;25068;-73
2023/10/08 13:05:52;;;;;;;18.95;9.38;;;;;;;;;;4990603;28;25152;-75
2023/10/08 13:08:19;;;;;;;24.65;10.88;;;;;;;;;;5001024;28;25057;-75
2023/10/08 13:10:45;;;;;;;18.65;10.20;;;;;;;;;;4993218;28;25085;-72
2023/10/08 13:13:12;;;;;;;20.75;11.00;;;;;;;;;;4999851;28;25092;-74
2023/10/08 13:15:38;;;;;;;21.20;10.95;;;;;;;;;;4994314;28;25080;-75
2023/10/08 13:18:04;;;;;;;29.15;11.38;;;;;;;;;;4981125;28;25071;-72
2023/10/08 13:20:34;;;;;;;27.92;11.07;;;;;;;;;;4998133;28;25057;-73
2023/10/08 13:23:04;;;;;;;20.52;11.82;;;;;;;;;;4979079;28;25080;-74
2023/10/08 13:25:33;;;;;;;20.70;12.05;;;;;;;;;;5000949;28;25068;-76
2023/10/08 13:28:00;;;;;;;21.33;9.80;;;;;;;;;;4992934;28;25057;-74
2023/10/08 13:30:26;;;;;;;28.55;12.27;;;;;;;;;;4994265;28;25088;-74
2023/10/08 13:32:53;;;;;;;23.20;11.52;;;;;;;;;;4997035;28;25205;-73
2023/10/08 13:35:19;;;;;;;20.10;11.20;;;;;;;;;;4992722;28;25106;-73
2023/10/08 13:37:48;;;;;;;25.70;10.77;;;;;;;;;;4994014;28;25077;-75
2023/10/08 13:40:15;;;;;;;28.15;12.02;;;;;;;;;;4990350;28;25077;-75
2023/10/08 13:42:45;;;;;;;25.05;11.02;;;;;;;;;;4997973;28;25067;-76
2023/10/08 13:45:25;;;;;;;28.30;11.70;;;;;;;;;;5001225;28;25083;-74
2023/10/08 13:47:52;;;;;;;24.92;12.15;;;;;;;;;;4996457;28;25059;-75
2023/10/08 13:50:18;;;;;;;28.48;11.30;;;;;;;;;;4993759;28;25047;-75
2023/10/08 13:52:44;;;;;;;23.30;12.07;;;;;;;;;;4998639;28;25069;-73
2023/10/08 13:55:13;;;;;;;33.83;13.45;;;;;;;;;;4999759;28;25076;-74
2023/10/08 13:57:42;;;;;;;24.17;12.60;;;;;;;;;;4985918;28;25171;-76
2023/10/08 14:00:15;;;;;;;24.20;12.25;;;;;;;;;;4991189;28;25065;-75
2023/10/08 14:02:42;;;;;;;28.13;13.35;;;;;;;;;;4978326;28;25057;-75
2023/10/08 14:05:08;;;;;;;26.00;12.70;;;;;;;;;;4999167;28;25073;-72
2023/10/08 14:07:35;;;;;;;28.45;13.20;;;;;;;;;;4989125;28;25061;-74
2023/10/08 14:10:08;;;;;;;22.80;14.00;;;;;;;;;;4995278;28;25076;-74
2023/10/08 14:12:35;;;;;;;20.17;10.85;;;;;;;;;;4991962;28;25071;-74
2023/10/08 14:15:06;;;;;;;32.72;13.93;;;;;;;;;;4982124;28;25129;-72
2023/10/08 14:17:48;;;;;;;26.20;13.52;;;;;;;;;;4994654;28;25103;-76
2023/10/08 14:20:16;;;;;;;24.23;12.93;;;;;;;;;;4998241;28;25072;-74
2023/10/08 14:22:43;;;;;;;26.42;13.77;;;;;;;;;;5002252;28;24954;-74
2023/10/08 14:25:14;;;;;;;32.90;12.73;;;;;;;;;;5000358;28;25066;-75
2023/10/08 14:27:40;;;;;;;30.13;13.52;;;;;;;;;;4999935;28;25067;-75
2023/10/08 14:30:20;;;;;;;29.50;14.10;;;;;;;;;;4972817;28;25080;-73
2023/10/08 14:32:46;;;;;;;35.53;17.52;;;;;;;;;;4998456;28;25065;-73
2023/10/08 14:43:31;;;;;;;28.85;14.23;;;;;;;;;;4987803;28;25115;-74
2023/10/08 14:45:59;;;;;;;34.17;15.55;;;;;;;;;;4981615;28;25055;-75
2023/10/08 14:48:27;;;;;;;32.60;15.02;;;;;;;;;;4998665;28;25055;-73
2023/10/08 14:50:53;;;;;;;31.88;15.52;;;;;;;;;;4994869;28;25052;-72
2023/10/08 14:53:19;;;;;;;30.88;16.70;;;;;;;;;;4991614;28;25056;-76
2023/10/08 14:55:47;;;;;;;27.75;14.65;;;;;;;;;;4998063;28;25044;-73
2023/10/08 14:58:14;;;;;;;35.45;16.25;;;;;;;;;;4980167;28;25062;-74
2023/10/08 15:00:41;;;;;;;30.58;14.88;;;;;;;;;;4995232;28;25134;-74
2023/10/08 15:03:08;;;;;;;29.70;15.90;;;;;;;;;;4981646;28;25049;-72
2023/10/08 15:05:36;;;;;;;40.65;15.73;;;;;;;;;;5000890;28;25109;-74
2023/10/08 15:08:05;;;;;;;33.40;15.02;;;;;;;;;;4984199;28;25066;-75
2023/10/08 15:10:31;;;;;;;33.40;16.10;;;;;;;;;;5001768;28;24889;-75
2023/10/08 15:12:57;;;;;;;34.08;15.40;;;;;;;;;;5002897;28;25125;-72
2023/10/08 15:15:24;;;;;;;35.50;15.43;;;;;;;;;;5002047;28;25056;-75
2023/10/08 15:17:51;;;;;;;27.48;14.48;;;;;;;;;;4998171;28;25072;-71
2023/10/08 15:20:19;;;;;;;32.92;14.88;;;;;;;;;;4992107;28;25056;-76
2023/10/08 15:22:46;;;;;;;29.42;15.50;;;;;;;;;;4995407;28;25062;-76
2023/10/08 15:25:12;;;;;;;30.08;14.85;;;;;;;;;;4996984;28;25084;-76
2023/10/08 15:27:44;;;;;;;30.10;15.57;;;;;;;;;;4990572;28;25056;-73
2023/10/08 15:30:11;;;;;;;30.83;15.73;;;;;;;;;;4992771;28;25055;-76
2023/10/08 15:32:39;;;;;;;34.55;15.90;;;;;;;;;;4995930;28;25132;-73
2023/10/08 15:35:08;;;;;;;32.20;15.45;;;;;;;;;;4992325;28;25074;-72
2023/10/08 15:37:34;;;;;;;35.35;16.23;;;;;;;;;;4992996;28;25058;-75
2023/10/08 15:40:06;;;;;;;27.23;14.60;;;;;;;;;;4988099;28;25054;-74
2023/10/08 15:42:32;;;;;;;39.85;15.70;;;;;;;;;;4993984;28;25084;-75
2023/10/08 15:44:57;;;;;;;42.35;16.65;;;;;;;;;;4995186;28;25098;-74
2023/10/08 15:47:25;;;;;;;33.28;15.93;;;;;;;;;;4984589;28;25064;-74
2023/10/08 15:49:51;;;;;;;35.97;17.10;;;;;;;;;;4977730;28;25045;-76
2023/10/08 15:52:17;;;;;;;29.23;15.32;;;;;;;;;;4993530;28;25070;-73
2023/10/08 15:54:45;;;;;;;38.30;15.60;;;;;;;;;;4977151;28;25062;-73